Time;durP1;ratioP1;P1;durP2;ratioP2;P2;SDS_P1;SDS_P2;PMS_P1;PMS_P2;Temp;Humidity;BMP_temperature;BMP_pressure;BME280_temperature;BME280_humidity;BME280_pressure;Samples;Min_cycle;Max_cycle;Signal;HPM_P1;HPM_P2
2023/07/09 00:02:03;;;;;;;39.93;23.37;;;;;;;;;;6343368;28;20092;-60
2023/07/09 00:05:05;;;;;;;41.20;22.83;;;;;;;;;;6343610;28;20056;-60
2023/07/09 00:08:05;;;;;;;45.67;23.15;;;;;;;;;;6341930;28;20410;-60
2023/07/09 00:11:06;;;;;;;44.93;24.00;;;;;;;;;;6343692;28;20554;-60
2023/07/09 00:14:09;;;;;;;47.78;25.08;;;;;;;;;;6343316;28;20051;-60
2023/07/09 00:17:11;;;;;;;45.42;24.42;;;;;;;;;;6341868;28;20052;-60
2023/07/09 00:20:17;;;;;;;49.20;24.48;;;;;;;;;;6342860;28;20529;-60
2023/07/09 00:23:19;;;;;;;46.20;24.30;;;;;;;;;;6342989;28;20498;-60
2023/07/09 00:26:23;;;;;;;45.78;24.63;;;;;;;;;;6342750;28;20062;-60
2023/07/09 00:29:23;;;;;;;51.97;25.00;;;;;;;;;;6341670;28;20044;-60
2023/07/09 00:32:25;;;;;;;52.63;25.27;;;;;;;;;;6343190;28;20058;-60
2023/07/09 00:35:25;;;;;;;47.58;26.42;;;;;;;;;;6342841;28;20092;-60
2023/07/09 00:38:26;;;;;;;46.15;26.13;;;;;;;;;;6341274;28;20043;-60
2023/07/09 00:41:28;;;;;;;48.42;25.63;;;;;;;;;;6342743;28;20486;-60
2023/07/09 00:44:31;;;;;;;49.70;27.52;;;;;;;;;;6324542;28;20414;-60
2023/07/09 00:47:56;;;;;;;45.47;26.13;;;;;;;;;;6341182;28;20048;-61
2023/07/09 00:50:59;;;;;;;48.05;25.63;;;;;;;;;;6341789;28;20051;-60
2023/07/09 00:54:07;;;;;;;48.30;26.88;;;;;;;;;;6341862;28;20043;-60
2023/07/09 00:57:12;;;;;;;47.72;26.00;;;;;;;;;;6342080;28;20043;-60
2023/07/09 01:00:14;;;;;;;47.78;27.10;;;;;;;;;;6341035;28;20440;-60
2023/07/09 01:03:20;;;;;;;;;;;;;;;;;;6342559;28;20063;-60
2023/07/09 01:06:29;;;;;;;48.72;27.50;;;;;;;;;;6342308;28;19920;-60
2023/07/09 01:09:30;;;;;;;53.67;27.92;;;;;;;;;;6341743;28;20047;-60
2023/07/09 01:12:31;;;;;;;56.42;28.92;;;;;;;;;;6341037;28;20169;-60
2023/07/09 01:15:33;;;;;;;47.92;28.08;;;;;;;;;;6342170;28;20043;-60
2023/07/09 01:18:36;;;;;;;57.28;29.98;;;;;;;;;;6342100;28;20128;-60
2023/07/09 01:21:37;;;;;;;50.85;28.30;;;;;;;;;;6340577;28;20164;-60
2023/07/09 01:24:55;;;;;;;59.42;30.05;;;;;;;;;;6342011;28;20050;-60
2023/07/09 01:27:55;;;;;;;61.20;30.35;;;;;;;;;;6342730;28;20448;-59
2023/07/09 01:30:56;;;;;;;56.15;30.92;;;;;;;;;;6341967;28;20051;-60
2023/07/09 01:33:57;;;;;;;51.78;29.48;;;;;;;;;;6341126;28;20496;-60
2023/07/09 01:36:57;;;;;;;53.28;28.95;;;;;;;;;;6342010;28;20424;-60
2023/07/09 01:39:58;;;;;;;54.80;28.27;;;;;;;;;;6342156;28;20047;-60
2023/07/09 01:43:00;;;;;;;55.05;29.70;;;;;;;;;;6340426;28;20135;-60
2023/07/09 01:46:01;;;;;;;52.05;29.08;;;;;;;;;;6341700;28;20343;-60
2023/07/09 01:49:02;;;;;;;56.85;30.08;;;;;;;;;;6341661;28;20482;-60
2023/07/09 01:52:03;;;;;;;52.95;29.38;;;;;;;;;;6340310;28;20044;-60
2023/07/09 01:55:05;;;;;;;60.83;30.58;;;;;;;;;;6341417;28;20077;-60
2023/07/09 01:58:06;;;;;;;53.87;28.93;;;;;;;;;;6343672;28;20048;-60
2023/07/09 02:01:08;;;;;;;54.95;29.65;;;;;;;;;;6346193;28;20379;-60
2023/07/09 02:04:08;;;;;;;51.40;28.73;;;;;;;;;;6345498;28;20458;-58
2023/07/09 02:07:09;;;;;;;55.13;29.50;;;;;;;;;;6346513;28;20051;-60
2023/07/09 02:10:11;;;;;;;51.53;28.70;;;;;;;;;;6346208;28;20436;-60
2023/07/09 02:13:12;;;;;;;55.88;29.23;;;;;;;;;;6345241;28;20127;-60
2023/07/09 02:16:12;;;;;;;52.88;28.25;;;;;;;;;;6346481;28;20047;-60
2023/07/09 02:19:13;;;;;;;55.95;28.38;;;;;;;;;;6346087;28;20068;-60
2023/07/09 02:22:13;;;;;;;48.72;28.35;;;;;;;;;;6344705;28;20043;-60
2023/07/09 02:25:14;;;;;;;53.85;30.13;;;;;;;;;;6345820;28;20063;-60
2023/07/09 02:28:15;;;;;;;49.78;28.40;;;;;;;;;;6345883;28;20047;-60
2023/07/09 02:31:15;;;;;;;48.13;28.80;;;;;;;;;;6345460;28;20079;-60
2023/07/09 02:34:17;;;;;;;50.10;27.80;;;;;;;;;;6345544;28;20067;-60
2023/07/09 02:37:17;;;;;;;52.05;28.15;;;;;;;;;;6346229;28;20043;-60
2023/07/09 02:40:18;;;;;;;51.45;29.15;;;;;;;;;;6327488;28;20043;-60
2023/07/09 02:43:19;;;;;;;55.55;30.25;;;;;;;;;;6344294;28;20138;-60
2023/07/09 02:46:19;;;;;;;58.92;29.25;;;;;;;;;;6345820;28;20475;-59
2023/07/09 02:49:22;;;;;;;56.83;30.02;;;;;;;;;;6345394;28;20040;-60
2023/07/09 02:52:22;;;;;;;55.90;29.90;;;;;;;;;;6344233;28;20051;-60
2023/07/09 02:55:23;;;;;;;57.65;29.00;;;;;;;;;;6345766;28;20048;-60
2023/07/09 02:58:23;;;;;;;62.10;28.25;;;;;;;;;;6345110;28;20414;-59
2023/07/09 03:01:26;;;;;;;56.72;27.75;;;;;;;;;;6344166;28;20056;-60
2023/07/09 03:04:27;;;;;;;51.67;27.83;;;;;;;;;;6344202;28;20424;-60
2023/07/09 03:07:28;;;;;;;55.97;28.88;;;;;;;;;;6345345;28;20051;-60
2023/07/09 03:10:28;;;;;;;53.95;27.73;;;;;;;;;;6343456;28;20040;-60
2023/07/09 03:13:29;;;;;;;57.45;28.60;;;;;;;;;;6343632;28;20055;-60
2023/07/09 03:16:32;;;;;;;48.88;28.20;;;;;;;;;;6344729;28;20043;-60
2023/07/09 03:19:33;;;;;;;53.83;29.13;;;;;;;;;;6344568;28;20443;-60
2023/07/09 03:22:33;;;;;;;55.15;28.67;;;;;;;;;;6343729;28;20047;-60
2023/07/09 03:25:34;;;;;;;55.10;30.23;;;;;;;;;;6344301;28;20486;-60
2023/07/09 03:28:34;;;;;;;53.83;28.20;;;;;;;;;;6345261;28;20043;-59
2023/07/09 03:31:35;;;;;;;54.67;29.70;;;;;;;;;;6343517;28;20044;-60
2023/07/09 03:34:35;;;;;;;54.92;30.42;;;;;;;;;;6344308;28;20043;-60
2023/07/09 03:37:37;;;;;;;53.00;29.58;;;;;;;;;;6344440;28;20113;-60
2023/07/09 03:40:38;;;;;;;59.63;30.00;;;;;;;;;;6343759;28;20048;-60
2023/07/09 03:43:39;;;;;;;65.05;30.90;;;;;;;;;;6342974;28;20047;-60
2023/07/09 03:46:39;;;;;;;56.75;29.50;;;;;;;;;;6344266;28;20434;-60
2023/07/09 03:49:41;;;;;;;59.78;31.25;;;;;;;;;;6344153;28;20055;-60
2023/07/09 03:52:42;;;;;;;54.08;30.55;;;;;;;;;;6342378;28;20040;-60
2023/07/09 03:55:46;;;;;;;59.28;30.02;;;;;;;;;;6343849;28;20843;-60
2023/07/09 03:58:46;;;;;;;62.88;29.85;;;;;;;;;;6343622;28;20047;-60
2023/07/09 04:01:47;;;;;;;58.58;29.35;;;;;;;;;;6342326;28;20078;-60
2023/07/09 04:04:47;;;;;;;54.25;29.35;;;;;;;;;;6342854;28;20046;-60
2023/07/09 04:07:48;;;;;;;54.65;29.42;;;;;;;;;;6343558;28;20536;-60
2023/07/09 04:10:48;;;;;;;63.63;32.67;;;;;;;;;;6343153;28;20055;-60
2023/07/09 04:13:49;;;;;;;55.28;30.98;;;;;;;;;;6342420;28;20088;-60
2023/07/09 04:16:50;;;;;;;61.05;30.92;;;;;;;;;;6343433;28;20040;-60
2023/07/09 04:19:51;;;;;;;59.80;31.95;;;;;;;;;;6343646;28;20047;-60
2023/07/09 04:22:51;;;;;;;58.65;32.35;;;;;;;;;;6341111;28;20502;-60
2023/07/09 04:25:52;;;;;;;58.63;32.13;;;;;;;;;;6342964;28;20047;-59
2023/07/09 04:28:52;;;;;;;61.58;32.15;;;;;;;;;;6343333;28;20054;-60
2023/07/09 04:31:53;;;;;;;68.45;36.85;;;;;;;;;;6342166;28;20514;-60
2023/07/09 04:34:54;;;;;;;73.63;38.23;;;;;;;;;;6342504;28;20059;-59
2023/07/09 04:37:55;;;;;;;79.80;38.40;;;;;;;;;;6342589;28;20044;-60
2023/07/09 04:40:55;;;;;;;74.07;37.97;;;;;;;;;;6341839;28;20409;-60
2023/07/09 04:43:56;;;;;;;72.47;37.60;;;;;;;;;;6341725;28;20456;-59
2023/07/09 04:46:56;;;;;;;75.70;38.23;;;;;;;;;;6342457;28;20051;-60
2023/07/09 04:49:57;;;;;;;73.97;36.53;;;;;;;;;;6342542;28;20482;-60
2023/07/09 04:52:59;;;;;;;70.03;36.20;;;;;;;;;;6340974;28;20707;-60
2023/07/09 04:56:00;;;;;;;66.55;34.42;;;;;;;;;;6342539;28;20057;-60
2023/07/09 04:59:01;;;;;;;65.57;32.65;;;;;;;;;;6342395;28;20048;-60
2023/07/09 05:02:02;;;;;;;64.40;33.37;;;;;;;;;;6340956;28;20083;-60
2023/07/09 05:05:03;;;;;;;61.47;31.73;;;;;;;;;;6342196;28;20491;-60
2023/07/09 05:08:04;;;;;;;62.63;29.47;;;;;;;;;;6342169;28;20429;-60
2023/07/09 05:11:04;;;;;;;53.63;29.50;;;;;;;;;;6341619;28;20291;-60
2023/07/09 05:14:05;;;;;;;62.67;29.77;;;;;;;;;;6341245;28;20075;-60
2023/07/09 05:17:06;;;;;;;55.23;29.67;;;;;;;;;;6341999;28;20475;-60
2023/07/09 05:20:07;;;;;;;51.05;27.20;;;;;;;;;;6342128;28;20050;-60
2023/07/09 05:23:09;;;;;;;51.30;26.33;;;;;;;;;;6340857;28;20043;-60
2023/07/09 05:26:11;;;;;;;50.83;26.02;;;;;;;;;;6341791;28;20048;-60
2023/07/09 05:29:11;;;;;;;45.00;24.30;;;;;;;;;;6341922;28;20048;-60
2023/07/09 05:32:12;;;;;;;49.00;25.40;;;;;;;;;;6340877;28;20386;-60
2023/07/09 05:35:13;;;;;;;48.63;24.73;;;;;;;;;;6347103;28;20073;-61
2023/07/09 05:38:15;;;;;;;42.63;23.58;;;;;;;;;;6347260;28;20054;-59
2023/07/09 05:41:18;;;;;;;43.65;23.80;;;;;;;;;;6346547;28;20093;-61
2023/07/09 05:44:19;;;;;;;42.97;23.92;;;;;;;;;;6345926;28;20044;-60
2023/07/09 05:47:20;;;;;;;47.70;24.10;;;;;;;;;;6346876;28;20048;-60
2023/07/09 05:50:20;;;;;;;44.07;23.40;;;;;;;;;;6346953;28;20130;-60
2023/07/09 05:53:22;;;;;;;47.60;23.63;;;;;;;;;;6345387;28;20127;-60
2023/07/09 05:56:23;;;;;;;40.42;23.33;;;;;;;;;;6346543;28;20043;-61
2023/07/09 05:59:23;;;;;;;43.97;23.50;;;;;;;;;;6346766;28;20406;-60
2023/07/09 06:02:24;;;;;;;46.10;22.33;;;;;;;;;;6345028;28;20450;-60
2023/07/09 06:05:24;;;;;;;41.93;22.30;;;;;;;;;;6346448;28;20056;-60
2023/07/09 06:08:26;;;;;;;40.60;22.93;;;;;;;;;;6346458;28;20048;-60
2023/07/09 06:11:26;;;;;;;47.88;23.58;;;;;;;;;;6346003;28;20059;-60
2023/07/09 06:14:27;;;;;;;42.63;23.07;;;;;;;;;;6345443;28;20173;-60
2023/07/09 06:17:28;;;;;;;39.40;21.83;;;;;;;;;;6346448;28;20057;-60
2023/07/09 06:20:28;;;;;;;43.37;22.07;;;;;;;;;;6346471;28;20489;-60
2023/07/09 06:23:30;;;;;;;41.87;22.40;;;;;;;;;;6344619;28;20040;-60
2023/07/09 06:26:31;;;;;;;40.75;22.30;;;;;;;;;;6345869;28;20048;-60
2023/07/09 06:29:31;;;;;;;43.07;22.47;;;;;;;;;;6345839;28;20039;-61
2023/07/09 06:32:32;;;;;;;39.27;23.07;;;;;;;;;;6344684;28;20359;-61
2023/07/09 06:35:33;;;;;;;37.97;21.30;;;;;;;;;;6345987;28;20746;-60
2023/07/09 06:38:33;;;;;;;38.83;21.40;;;;;;;;;;6346428;28;20124;-60
2023/07/09 06:41:41;;;;;;;40.50;22.20;;;;;;;;;;6344739;28;20048;-60
2023/07/09 06:44:42;;;;;;;37.47;21.83;;;;;;;;;;6343625;28;20044;-60
2023/07/09 06:47:42;;;;;;;40.57;22.57;;;;;;;;;;6345553;28;20058;-60
2023/07/09 06:50:43;;;;;;;37.00;21.70;;;;;;;;;;6326957;28;20065;-60
2023/07/09 06:53:47;;;;;;;36.33;21.47;;;;;;;;;;6344365;28;20094;-60
2023/07/09 06:56:48;;;;;;;41.85;22.38;;;;;;;;;;6345201;28;20050;-60
2023/07/09 06:59:48;;;;;;;35.53;21.20;;;;;;;;;;6345318;28;20047;-60
2023/07/09 07:02:49;;;;;;;38.00;20.87;;;;;;;;;;6344133;28;20047;-60
2023/07/09 07:05:53;;;;;;;35.53;20.37;;;;;;;;;;6345385;28;20050;-60
2023/07/09 07:08:54;;;;;;;37.85;19.50;;;;;;;;;;6345063;28;20054;-61
2023/07/09 07:11:54;;;;;;;34.90;19.53;;;;;;;;;;6344862;28;20052;-60
2023/07/09 07:14:55;;;;;;;37.33;20.73;;;;;;;;;;6344435;28;20057;-61
2023/07/09 07:17:56;;;;;;;34.25;21.60;;;;;;;;;;6344792;28;20495;-60
2023/07/09 07:20:57;;;;;;;32.83;19.10;;;;;;;;;;6344595;28;20055;-60
2023/07/09 07:23:57;;;;;;;35.57;19.00;;;;;;;;;;6343907;28;20040;-60
2023/07/09 07:26:58;;;;;;;34.15;19.25;;;;;;;;;;6344698;28;20055;-60
2023/07/09 07:29:59;;;;;;;31.00;19.87;;;;;;;;;;6344411;28;20494;-60
2023/07/09 07:33:00;;;;;;;31.92;18.27;;;;;;;;;;6343362;28;20065;-60
2023/07/09 07:36:04;;;;;;;32.17;17.53;;;;;;;;;;6344396;28;20085;-61
2023/07/09 07:39:05;;;;;;;27.58;16.67;;;;;;;;;;6344378;28;20047;-60
2023/07/09 07:42:05;;;;;;;32.27;16.00;;;;;;;;;;6343608;28;20425;-61
2023/07/09 07:45:07;;;;;;;32.53;15.83;;;;;;;;;;6343183;28;20482;-60
2023/07/09 07:48:08;;;;;;;24.73;15.48;;;;;;;;;;6344123;28;20778;-60
2023/07/09 07:51:09;;;;;;;30.70;17.33;;;;;;;;;;6344165;28;20047;-61
2023/07/09 07:54:09;;;;;;;29.80;16.53;;;;;;;;;;6342783;28;20044;-60
2023/07/09 07:57:11;;;;;;;28.08;16.98;;;;;;;;;;6343448;28;20043;-60
2023/07/09 08:00:12;;;;;;;32.80;17.10;;;;;;;;;;6343996;28;20127;-61
2023/07/09 08:03:13;;;;;;;26.73;17.30;;;;;;;;;;6342117;28;20138;-60
2023/07/09 08:06:13;;;;;;;29.77;17.97;;;;;;;;;;6343537;28;20047;-60
2023/07/09 08:09:15;;;;;;;21.90;14.13;;;;;;;;;;6343588;28;20482;-61
2023/07/09 08:12:15;;;;;;;;;;;;;;;;;;6343161;28;20055;-61
2023/07/09 08:15:17;;;;;;;26.13;14.40;;;;;;;;;;6342779;28;19926;-60
2023/07/09 08:18:17;;;;;;;;;;;;;;;;;;6343702;28;20068;-61
2023/07/09 08:21:18;;;;;;;23.27;15.17;;;;;;;;;;6343422;28;19976;-61
2023/07/09 08:24:19;;;;;;;23.95;14.25;;;;;;;;;;6342076;28;20060;-60
2023/07/09 08:27:20;;;;;;;21.03;14.53;;;;;;;;;;6343656;28;20048;-61
2023/07/09 08:30:20;;;;;;;21.60;14.40;;;;;;;;;;6343092;28;20047;-60
2023/07/09 08:33:22;;;;;;;20.20;14.13;;;;;;;;;;6341365;28;20116;-61
2023/07/09 08:36:23;;;;;;;;;;;;;;;;;;6343480;28;20048;-61
2023/07/09 08:39:24;;;;;;;19.63;13.55;;;;;;;;;;6343244;28;19966;-60
2023/07/09 08:42:42;;;;;;;23.17;12.70;;;;;;;;;;6342292;28;20051;-61
2023/07/09 08:46:14;;;;;;;19.70;12.82;;;;;;;;;;6341188;28;20047;-60
2023/07/09 08:49:21;;;;;;;18.77;13.68;;;;;;;;;;6342559;28;20141;-61
2023/07/09 08:52:38;;;;;;;23.08;14.02;;;;;;;;;;6342695;28;20055;-60
2023/07/09 08:55:40;;;;;;;21.42;14.18;;;;;;;;;;6342187;28;20396;-61
2023/07/09 08:58:42;;;;;;;24.13;13.70;;;;;;;;;;6341140;28;20624;-61
2023/07/09 09:01:51;;;;;;;24.10;14.70;;;;;;;;;;6342155;28;20062;-61
2023/07/09 09:04:52;;;;;;;20.50;13.18;;;;;;;;;;6342474;28;20057;-61
2023/07/09 09:08:02;;;;;;;20.30;13.32;;;;;;;;;;6340415;28;20085;-61
2023/07/09 09:11:21;;;;;;;18.25;12.40;;;;;;;;;;6342072;28;20058;-61
2023/07/09 09:14:30;;;;;;;21.90;13.75;;;;;;;;;;6342119;28;20507;-61
2023/07/09 09:17:34;;;;;;;20.67;13.10;;;;;;;;;;6342231;28;20074;-61
2023/07/09 09:20:34;;;;;;;21.38;13.13;;;;;;;;;;6340999;28;20097;-61
2023/07/09 09:23:45;;;;;;;18.33;12.53;;;;;;;;;;6341987;28;20071;-61
2023/07/09 09:26:48;;;;;;;18.70;12.47;;;;;;;;;;6341807;28;20884;-61
2023/07/09 09:29:49;;;;;;;22.08;13.13;;;;;;;;;;6340993;28;20115;-61
2023/07/09 09:32:58;;;;;;;16.63;11.63;;;;;;;;;;6341464;28;20428;-61
2023/07/09 09:36:04;;;;;;;21.88;13.38;;;;;;;;;;6342193;28;20054;-61
2023/07/09 09:39:04;;;;;;;21.20;12.70;;;;;;;;;;6342061;28;20571;-61
2023/07/09 09:42:11;;;;;;;15.88;11.88;;;;;;;;;;6340362;28;20135;-60
2023/07/09 09:45:15;;;;;;;20.33;12.50;;;;;;;;;;6341835;28;20043;-61
2023/07/09 09:48:38;;;;;;;21.55;12.82;;;;;;;;;;6341688;28;20178;-61
2023/07/09 09:51:43;;;;;;;20.02;12.45;;;;;;;;;;6341039;28;20060;-61
2023/07/09 09:54:51;;;;;;;19.17;12.65;;;;;;;;;;6340376;28;20116;-61
2023/07/09 09:57:53;;;;;;;18.65;12.38;;;;;;;;;;6342044;28;20395;-61
2023/07/09 10:00:57;;;;;;;16.33;12.02;;;;;;;;;;6342017;28;20730;-61
2023/07/09 10:04:00;;;;;;;17.75;12.70;;;;;;;;;;6340776;28;20449;-61
2023/07/09 10:07:06;;;;;;;19.48;12.27;;;;;;;;;;6341842;28;20054;-61
2023/07/09 10:10:19;;;;;;;18.70;11.98;;;;;;;;;;6341810;28;20152;-61
2023/07/09 10:13:34;;;;;;;17.92;12.30;;;;;;;;;;6341216;28;20508;-61
2023/07/09 10:16:41;;;;;;;19.13;12.25;;;;;;;;;;6339982;28;20088;-61
2023/07/09 10:20:14;;;;;;;21.02;12.82;;;;;;;;;;6343778;28;20047;-60
2023/07/09 10:23:25;;;;;;;23.98;13.30;;;;;;;;;;6346127;28;20078;-61
2023/07/09 10:26:32;;;;;;;22.20;12.52;;;;;;;;;;6345865;28;20048;-61
2023/07/09 10:29:52;;;;;;;19.63;13.27;;;;;;;;;;6344943;28;20147;-61
2023/07/09 10:33:06;;;;;;;16.40;12.13;;;;;;;;;;6346187;28;20043;-60
2023/07/09 10:36:21;;;;;;;19.88;13.00;;;;;;;;;;6346627;28;20035;-61
2023/07/09 10:39:27;;;;;;;19.52;12.75;;;;;;;;;;6345907;28;20505;-61
2023/07/09 10:42:42;;;;;;;23.05;12.98;;;;;;;;;;6344210;28;20505;-61
2023/07/09 10:45:48;;;;;;;18.95;12.82;;;;;;;;;;6345389;28;20047;-60
2023/07/09 10:48:55;;;;;;;18.38;12.88;;;;;;;;;;6345414;28;20053;-61
2023/07/09 10:52:06;;;;;;;16.88;12.50;;;;;;;;;;6345684;28;20057;-61
2023/07/09 10:55:18;;;;;;;18.33;12.80;;;;;;;;;;6344663;28;20339;-61
2023/07/09 10:58:28;;;;;;;17.00;12.02;;;;;;;;;;6345461;28;20071;-61
2023/07/09 11:01:37;;;;;;;21.80;12.63;;;;;;;;;;6345423;28;20056;-61
2023/07/09 11:04:44;;;;;;;18.38;12.40;;;;;;;;;;6344024;28;20130;-61
2023/07/09 11:08:09;;;;;;;20.20;11.98;;;;;;;;;;6344245;28;20052;-61
2023/07/09 11:11:24;;;;;;;19.98;11.55;;;;;;;;;;6344854;28;20405;-61
2023/07/09 11:14:33;;;;;;;19.05;12.45;;;;;;;;;;6344788;28;20043;-61
2023/07/09 11:17:36;;;;;;;18.33;12.13;;;;;;;;;;6343992;28;20047;-61
2023/07/09 11:20:43;;;;;;;16.02;11.27;;;;;;;;;;6344148;28;20486;-61
2023/07/09 11:23:51;;;;;;;16.75;12.07;;;;;;;;;;6344785;28;20053;-60
2023/07/09 11:26:51;;;;;;;18.13;12.07;;;;;;;;;;6344266;28;20456;-61
2023/07/09 11:29:56;;;;;;;19.15;12.65;;;;;;;;;;6343481;28;20044;-61
2023/07/09 11:33:04;;;;;;;17.45;11.43;;;;;;;;;;6344235;28;20127;-61
2023/07/09 11:36:09;;;;;;;16.90;11.98;;;;;;;;;;6344579;28;20131;-61
2023/07/09 11:39:20;;;;;;;16.35;11.75;;;;;;;;;;6342989;28;20536;-61
2023/07/09 11:42:24;;;;;;;17.05;11.90;;;;;;;;;;6343591;28;20050;-61
2023/07/09 11:45:31;;;;;;;16.60;12.50;;;;;;;;;;6343931;28;20053;-61
2023/07/09 11:48:36;;;;;;;20.58;13.10;;;;;;;;;;6344744;28;20075;-61
2023/07/09 11:51:43;;;;;;;18.05;13.52;;;;;;;;;;6342223;28;20051;-61
2023/07/09 11:54:44;;;;;;;16.05;11.98;;;;;;;;;;6343724;28;20440;-61
2023/07/09 11:57:52;;;;;;;16.92;12.02;;;;;;;;;;6343943;28;20051;-61
2023/07/09 12:00:57;;;;;;;16.63;12.65;;;;;;;;;;6342995;28;20051;-61
2023/07/09 12:03:58;;;;;;;17.77;12.02;;;;;;;;;;6343011;28;20467;-61
2023/07/09 12:07:01;;;;;;;18.80;12.82;;;;;;;;;;6343364;28;20421;-61
2023/07/09 12:10:09;;;;;;;21.55;13.40;;;;;;;;;;6343929;28;20081;-61
2023/07/09 12:13:11;;;;;;;16.67;11.98;;;;;;;;;;6342368;28;20080;-61
2023/07/09 12:16:30;;;;;;;19.05;12.15;;;;;;;;;;6343776;28;20050;-61
2023/07/09 12:19:31;;;;;;;19.10;13.15;;;;;;;;;;6343222;28;20047;-61
2023/07/09 12:22:31;;;;;;;20.30;12.67;;;;;;;;;;6343002;28;20102;-61
2023/07/09 12:25:32;;;;;;;19.40;12.57;;;;;;;;;;6342461;28;20051;-60
2023/07/09 12:28:32;;;;;;;19.63;12.63;;;;;;;;;;6343354;28;20051;-61
2023/07/09 12:31:33;;;;;;;21.23;13.80;;;;;;;;;;6342872;28;20762;-61
2023/07/09 12:34:33;;;;;;;18.03;12.53;;;;;;;;;;6341766;28;20491;-61
2023/07/09 12:37:34;;;;;;;19.42;12.15;;;;;;;;;;6342888;28;20054;-61
2023/07/09 12:40:36;;;;;;;17.23;12.10;;;;;;;;;;6343022;28;20536;-61
2023/07/09 12:43:38;;;;;;;16.90;12.15;;;;;;;;;;6340490;28;20471;-61
2023/07/09 12:46:38;;;;;;;17.17;12.07;;;;;;;;;;6342216;28;20055;-61
2023/07/09 12:49:45;;;;;;;18.77;12.15;;;;;;;;;;6342924;28;20047;-61
2023/07/09 12:52:47;;;;;;;15.88;11.73;;;;;;;;;;6342330;28;20435;-61
2023/07/09 12:55:50;;;;;;;18.80;12.23;;;;;;;;;;6341512;28;20048;-61
2023/07/09 12:58:57;;;;;;;17.40;12.02;;;;;;;;;;6342541;28;20055;-61
2023/07/09 13:02:07;;;;;;;19.80;12.43;;;;;;;;;;6342555;28;20055;-60
2023/07/09 13:05:22;;;;;;;16.92;12.20;;;;;;;;;;6340791;28;20447;-61
2023/07/09 13:08:25;;;;;;;16.35;12.32;;;;;;;;;;6342123;28;20043;-61
2023/07/09 13:11:33;;;;;;;18.23;12.60;;;;;;;;;;6342818;28;20092;-61
2023/07/09 13:14:33;;;;;;;16.23;11.82;;;;;;;;;;6342235;28;20051;-62
2023/07/09 13:17:35;;;;;;;15.93;11.85;;;;;;;;;;6341020;28;20159;-61
2023/07/09 13:20:40;;;;;;;;;;;;;;;;;;6342733;28;20442;-61
2023/07/09 13:23:42;;;;;;;16.27;11.85;;;;;;;;;;6342641;28;19924;-62
2023/07/09 13:26:43;;;;;;;16.27;12.30;;;;;;;;;;6340858;28;20517;-61
2023/07/09 13:29:43;;;;;;;17.65;12.30;;;;;;;;;;6341920;28;20079;-61
2023/07/09 13:32:47;;;;;;;15.77;11.93;;;;;;;;;;6341843;28;20521;-61
2023/07/09 13:35:48;;;;;;;17.20;12.45;;;;;;;;;;6341134;28;20052;-61
2023/07/09 13:38:49;;;;;;;;;;;;;;;;;;6341693;28;20092;-61
2023/07/09 13:41:53;;;;;;;19.10;13.05;;;;;;;;;;6341962;28;20304;-61
2023/07/09 13:44:55;;;;;;;20.30;12.60;;;;;;;;;;6341610;28;20394;-61
2023/07/09 13:47:55;;;;;;;17.23;11.95;;;;;;;;;;6340529;28;20147;-61
2023/07/09 13:50:56;;;;;;;;;;;;;;;;;;6342178;28;20534;-61
2023/07/09 13:53:59;;;;;;;18.50;12.37;;;;;;;;;;6343351;28;20018;-61
2023/07/09 13:56:59;;;;;;;17.50;12.65;;;;;;;;;;6345290;28;20075;-61
2023/07/09 14:00:00;;;;;;;;;;;;;;;;;;6347340;28;20058;-60
2023/07/09 14:03:01;;;;;;;17.77;12.23;;;;;;;;;;6346570;28;20331;-60
2023/07/09 14:06:02;;;;;;;;;;;;;;;;;;6346563;28;20521;-61
2023/07/09 14:09:03;;;;;;;18.73;12.93;;;;;;;;;;6346185;28;20018;-60
2023/07/09 14:12:04;;;;;;;;;;;;;;;;;;6346716;28;20479;-61
2023/07/09 14:15:12;;;;;;;16.95;12.10;;;;;;;;;;6346651;28;19929;-60
2023/07/09 14:18:16;;;;;;;16.83;12.40;;;;;;;;;;6344952;28;20051;-60
2023/07/09 14:21:25;;;;;;;18.65;12.40;;;;;;;;;;6346766;28;20546;-61
2023/07/09 14:24:28;;;;;;;17.52;11.70;;;;;;;;;;6346713;28;20050;-60
2023/07/09 14:27:29;;;;;;;17.00;12.40;;;;;;;;;;6345252;28;20050;-61
2023/07/09 14:30:29;;;;;;;;;;;;;;;;;;6346133;28;20410;-61
2023/07/09 14:33:30;;;;;;;19.30;12.77;;;;;;;;;;6345930;28;19927;-61
2023/07/09 14:36:30;;;;;;;;;;;;;;;;;;6346027;28;20047;-61
2023/07/09 14:39:31;;;;;;;18.17;12.53;;;;;;;;;;6344933;28;19920;-61
2023/07/09 14:42:32;;;;;;;16.38;11.52;;;;;;;;;;6345611;28;20043;-60
2023/07/09 14:45:32;;;;;;;;;;;;;;;;;;6345964;28;20051;-60
2023/07/09 14:48:33;;;;;;;17.58;12.02;;;;;;;;;;6344552;28;19938;-60
2023/07/09 14:51:33;;;;;;;;;;;;;;;;;;6345965;28;20048;-60
2023/07/09 14:54:34;;;;;;;17.65;12.20;;;;;;;;;;6345644;28;19923;-61
2023/07/09 14:57:36;;;;;;;;;;;;;;;;;;6344862;28;20055;-61
2023/07/09 15:00:36;;;;;;;18.50;11.90;;;;;;;;;;6345402;28;20006;-61
2023/07/09 15:03:37;;;;;;;17.02;12.43;;;;;;;;;;6345120;28;20069;-60
2023/07/09 15:06:38;;;;;;;;;;;;;;;;;;6344429;28;20054;-61
2023/07/09 15:09:38;;;;;;;20.77;13.33;;;;;;;;;;6344251;28;19923;-61
2023/07/09 15:12:40;;;;;;;;;;;;;;;;;;6345384;28;20043;-61
2023/07/09 15:15:40;;;;;;;18.23;12.43;;;;;;;;;;6345173;28;20404;-61
2023/07/09 15:18:41;;;;;;;22.42;15.65;;;;;;;;;;6343730;28;20051;-60
2023/07/09 15:21:42;;;;;;;;;;;;;;;;;;6345280;28;20468;-61
2023/07/09 15:24:42;;;;;;;19.70;13.13;;;;;;;;;;6344790;28;19978;-61
2023/07/09 15:27:43;;;;;;;16.88;12.30;;;;;;;;;;6343306;28;20047;-61
2023/07/09 15:30:45;;;;;;;17.45;12.10;;;;;;;;;;6344550;28;20055;-61
2023/07/09 15:33:46;;;;;;;19.20;13.30;;;;;;;;;;6326128;28;20445;-61
2023/07/09 15:36:48;;;;;;;;;;;;;;;;;;6344240;28;20047;-61
2023/07/09 15:39:49;;;;;;;21.55;13.98;;;;;;;;;;6343349;28;19924;-61
2023/07/09 15:42:51;;;;;;;;;;;;;;;;;;6344941;28;20043;-60
2023/07/09 15:45:55;;;;;;;17.65;12.20;;;;;;;;;;6344457;28;20393;-61
2023/07/09 15:48:56;;;;;;;17.90;12.00;;;;;;;;;;6342872;28;20051;-60
2023/07/09 15:51:57;;;;;;;;;;;;;;;;;;6344378;28;20402;-61
2023/07/09 15:54:58;;;;;;;19.20;13.17;;;;;;;;;;6343801;28;19972;-61
2023/07/09 15:57:58;;;;;;;;;;;;;;;;;;6343201;28;20476;-61
2023/07/09 16:00:59;;;;;;;18.37;14.07;;;;;;;;;;6343668;28;19926;-61
2023/07/09 16:04:01;;;;;;;;;;;;;;;;;;6344522;28;20115;-61
2023/07/09 16:07:01;;;;;;;17.27;11.10;;;;;;;;;;6342825;28;19920;-61
2023/07/09 16:10:02;;;;;;;;;;;;;;;;;;6343257;28;20062;-61
2023/07/09 16:13:03;;;;;;;21.50;12.17;;;;;;;;;;6344103;28;20085;-60
2023/07/09 16:16:03;;;;;;;;;;;;;;;;;;6344286;28;20478;-61
2023/07/09 16:19:04;;;;;;;19.47;13.43;;;;;;;;;;6341915;28;20330;-61
2023/07/09 16:22:06;;;;;;;;;;;;;;;;;;6344165;28;20054;-61
2023/07/09 16:25:20;;;;;;;18.77;13.10;;;;;;;;;;6343779;28;20000;-60
2023/07/09 16:28:20;;;;;;;18.63;11.82;;;;;;;;;;6342275;28;20162;-61
2023/07/09 16:31:21;;;;;;;;;;;;;;;;;;6343038;28;20457;-61
2023/07/09 16:34:27;;;;;;;17.37;12.27;;;;;;;;;;6324718;28;20375;-60
2023/07/09 16:37:27;;;;;;;19.25;11.40;;;;;;;;;;6324874;28;20043;-61
2023/07/09 16:40:29;;;;;;;;;;;;;;;;;;6341902;28;20039;-61
2023/07/09 16:43:30;;;;;;;16.50;11.65;;;;;;;;;;6343099;28;19930;-60
2023/07/09 16:46:30;;;;;;;;;;;;;;;;;;6343249;28;20043;-60
2023/07/09 16:49:43;;;;;;;18.97;11.37;;;;;;;;;;6341545;28;19923;-60
2023/07/09 16:52:44;;;;;;;18.02;11.50;;;;;;;;;;6342183;28;20402;-61
2023/07/09 16:55:47;;;;;;;16.95;11.05;;;;;;;;;;6342379;28;20138;-60
2023/07/09 16:58:47;;;;;;;14.93;10.57;;;;;;;;;;6342215;28;20047;-60
2023/07/09 17:01:50;;;;;;;;;;;;;;;;;;6342219;28;20073;-61
2023/07/09 17:04:51;;;;;;;16.60;11.18;;;;;;;;;;6342317;28;19919;-60
2023/07/09 17:07:52;;;;;;;18.50;10.90;;;;;;;;;;6342122;28;20063;-61
2023/07/09 17:10:53;;;;;;;17.55;10.57;;;;;;;;;;6341001;28;20435;-61
2023/07/09 17:13:54;;;;;;;16.48;10.70;;;;;;;;;;6342220;28;20052;-61
2023/07/09 17:16:54;;;;;;;;;;;;;;;;;;6343508;28;20048;-61
2023/07/09 17:19:55;;;;;;;15.57;9.60;;;;;;;;;;6341228;28;20386;-61
2023/07/09 17:22:57;;;;;;;;;;;;;;;;;;6342311;28;20410;-60
2023/07/09 17:25:59;;;;;;;17.70;10.45;;;;;;;;;;6342222;28;19975;-60
2023/07/09 17:29:00;;;;;;;15.93;9.63;;;;;;;;;;6340927;28;20055;-60
2023/07/09 17:32:00;;;;;;;;;;;;;;;;;;6341578;28;20039;-60
2023/07/09 17:35:01;;;;;;;13.53;9.97;;;;;;;;;;6341832;28;19920;-60
2023/07/09 17:38:03;;;;;;;16.10;9.82;;;;;;;;;;6341654;28;20490;-60
2023/07/09 17:41:04;;;;;;;13.02;9.80;;;;;;;;;;6339957;28;20107;-60
2023/07/09 17:44:13;;;;;;;13.63;9.00;;;;;;;;;;6342233;28;20134;-60
2023/07/09 17:47:16;;;;;;;17.15;9.43;;;;;;;;;;6341635;28;20055;-60
2023/07/09 17:50:20;;;;;;;15.27;9.15;;;;;;;;;;6341148;28;20050;-60
2023/07/09 17:53:27;;;;;;;17.77;9.88;;;;;;;;;;6341197;28;20047;-60
2023/07/09 17:56:29;;;;;;;14.82;9.02;;;;;;;;;;6341591;28;20414;-60
2023/07/09 17:59:36;;;;;;;15.00;9.25;;;;;;;;;;6342224;28;20452;-61